Time;durP1;ratioP1;P1;durP2;ratioP2;P2;SDS_P1;SDS_P2;PMS_P1;PMS_P2;Temp;Humidity;BMP_temperature;BMP_pressure;BME280_temperature;BME280_humidity;BME280_pressure;Samples;Min_cycle;Max_cycle;Signal;HPM_P1;HPM_P2
2022/10/15 00:00:47;;;;;;;42.80;24.60;;;;;;;;;;4958466;28;20605;-47
2022/10/15 00:03:28;;;;;;;43.67;23.42;;;;;;;;;;4958490;28;20235;-46
2022/10/15 00:05:55;;;;;;;43.47;25.13;;;;;;;;;;4958228;28;20227;-47
2022/10/15 00:08:22;;;;;;;39.22;23.73;;;;;;;;;;4958203;28;20203;-48
2022/10/15 00:10:49;;;;;;;39.92;23.02;;;;;;;;;;4957869;28;20258;-49
2022/10/15 00:13:16;;;;;;;48.67;28.83;;;;;;;;;;4958397;28;20539;-46
2022/10/15 00:15:43;;;;;;;45.55;29.88;;;;;;;;;;4958147;28;20203;-47
2022/10/15 00:18:10;;;;;;;52.95;32.88;;;;;;;;;;4957825;28;20290;-46
2022/10/15 00:20:40;;;;;;;66.65;32.88;;;;;;;;;;4958057;28;20211;-47
2022/10/15 00:23:07;;;;;;;64.47;28.65;;;;;;;;;;4957858;28;20207;-47
2022/10/15 00:25:35;;;;;;;49.67;27.17;;;;;;;;;;4957650;28;20662;-46
2022/10/15 00:28:02;;;;;;;57.10;27.80;;;;;;;;;;4957590;28;20203;-47
2022/10/15 00:30:28;;;;;;;48.08;24.58;;;;;;;;;;4956695;29;20540;-47
2022/10/15 00:32:55;;;;;;;45.45;25.00;;;;;;;;;;4957887;28;20238;-47
2022/10/15 00:35:23;;;;;;;51.50;26.17;;;;;;;;;;4957540;28;20214;-47
2022/10/15 00:37:49;;;;;;;43.53;24.02;;;;;;;;;;4956597;29;20203;-47
2022/10/15 00:40:18;;;;;;;40.92;23.60;;;;;;;;;;4957503;28;20634;-47
2022/10/15 00:42:45;;;;;;;40.80;24.70;;;;;;;;;;4956839;29;20217;-47
2022/10/15 00:45:14;;;;;;;34.25;21.50;;;;;;;;;;4957485;28;20503;-47
2022/10/15 00:47:43;;;;;;;36.72;21.25;;;;;;;;;;4957508;28;20294;-46
2022/10/15 00:50:23;;;;;;;39.53;24.58;;;;;;;;;;4940709;29;20266;-48
2022/10/15 00:52:58;;;;;;;41.75;26.45;;;;;;;;;;4956848;29;20227;-47
2022/10/15 00:55:29;;;;;;;49.67;28.40;;;;;;;;;;4957677;28;20526;-47
2022/10/15 00:58:27;;;;;;;88.75;37.67;;;;;;;;;;4940981;29;20577;-47
2022/10/15 01:00:55;;;;;;;69.05;32.80;;;;;;;;;;4936345;29;20282;-47
2022/10/15 01:03:22;;;;;;;61.08;32.47;;;;;;;;;;4936167;29;20307;-47
2022/10/15 01:05:50;;;;;;;43.63;23.48;;;;;;;;;;4920695;29;20242;-46
2022/10/15 01:08:18;;;;;;;44.65;24.90;;;;;;;;;;4920587;29;20520;-47
2022/10/15 01:11:34;;;;;;;41.33;23.10;;;;;;;;;;4936496;29;20215;-48
2022/10/15 01:14:23;;;;;;;47.10;23.63;;;;;;;;;;4879647;29;20548;-47
2022/10/15 01:17:06;;;;;;;44.25;23.08;;;;;;;;;;4879741;29;20634;-47
2022/10/15 01:20:12;;;;;;;35.20;20.40;;;;;;;;;;4879709;29;20221;-46
2022/10/15 01:22:55;;;;;;;32.30;21.02;;;;;;;;;;4879498;29;20648;-47
2022/10/15 01:25:43;;;;;;;41.53;26.10;;;;;;;;;;4895186;29;20274;-46
2022/10/15 01:28:22;;;;;;;60.88;38.97;;;;;;;;;;4879533;29;20241;-47
2022/10/15 01:30:57;;;;;;;74.10;48.03;;;;;;;;;;4879600;29;20209;-47
2022/10/15 01:33:44;;;;;;;68.65;34.72;;;;;;;;;;4879716;29;20209;-47
2022/10/15 01:36:18;;;;;;;68.93;32.72;;;;;;;;;;4879726;29;20213;-48
2022/10/15 01:38:54;;;;;;;60.10;30.73;;;;;;;;;;4882789;29;20209;-47
2022/10/15 01:41:25;;;;;;;55.78;27.67;;;;;;;;;;4898057;29;20209;-47
2022/10/15 01:43:58;;;;;;;48.13;27.30;;;;;;;;;;4882301;29;20220;-47
2022/10/15 01:46:41;;;;;;;40.88;22.60;;;;;;;;;;4883325;29;20213;-49
2022/10/15 01:49:13;;;;;;;40.00;22.17;;;;;;;;;;4888978;29;20213;-47
2022/10/15 01:51:43;;;;;;;36.58;20.38;;;;;;;;;;4940504;29;20227;-47
2022/10/15 01:54:15;;;;;;;33.92;20.05;;;;;;;;;;4940198;29;20267;-47
2022/10/15 01:56:48;;;;;;;35.92;19.45;;;;;;;;;;4940094;29;20277;-47
2022/10/15 01:59:21;;;;;;;31.70;19.67;;;;;;;;;;4955710;29;20203;-48
2022/10/15 02:01:49;;;;;;;35.67;21.23;;;;;;;;;;4940005;29;20231;-48
2022/10/15 02:04:27;;;;;;;58.00;36.53;;;;;;;;;;4956420;28;20634;-47
2022/10/15 02:06:54;;;;;;;54.15;33.58;;;;;;;;;;4956843;28;20207;-47
2022/10/15 02:09:26;;;;;;;37.42;23.13;;;;;;;;;;4956581;28;20218;-46
2022/10/15 02:12:15;;;;;;;34.47;18.48;;;;;;;;;;4956960;28;20651;-50
2022/10/15 02:14:49;;;;;;;60.25;29.23;;;;;;;;;;4956156;29;20203;-47
2022/10/15 02:17:20;;;;;;;44.20;23.63;;;;;;;;;;4940265;29;20211;-48
2022/10/15 02:19:50;;;;;;;43.80;24.95;;;;;;;;;;4939910;29;20211;-48
2022/10/15 02:22:22;;;;;;;42.33;23.33;;;;;;;;;;4956187;29;20270;-47
2022/10/15 02:24:56;;;;;;;36.92;20.50;;;;;;;;;;4956580;28;20203;-47
2022/10/15 02:27:23;;;;;;;33.20;19.05;;;;;;;;;;4956900;28;20218;-47
2022/10/15 02:29:51;;;;;;;35.95;20.52;;;;;;;;;;4939684;29;20544;-46
2022/10/15 02:32:19;;;;;;;32.92;18.98;;;;;;;;;;4956357;28;20318;-47
2022/10/15 02:34:48;;;;;;;31.30;18.00;;;;;;;;;;4956301;28;20203;-46
2022/10/15 02:37:16;;;;;;;27.65;16.63;;;;;;;;;;4939509;29;20606;-47
2022/10/15 02:39:44;;;;;;;33.35;18.83;;;;;;;;;;4939729;29;20545;-47
2022/10/15 02:42:14;;;;;;;36.28;21.02;;;;;;;;;;4955477;29;20207;-47
2022/10/15 02:44:41;;;;;;;34.72;22.13;;;;;;;;;;4955390;29;20207;-48
2022/10/15 02:47:08;;;;;;;35.20;22.88;;;;;;;;;;4955945;28;20596;-46
2022/10/15 02:49:36;;;;;;;34.42;21.13;;;;;;;;;;4939970;29;20298;-47
2022/10/15 02:52:03;;;;;;;40.55;22.00;;;;;;;;;;4957062;28;20235;-47
2022/10/15 02:54:30;;;;;;;44.03;24.92;;;;;;;;;;4959173;29;20199;-46
2022/10/15 02:56:59;;;;;;;42.60;23.98;;;;;;;;;;4958652;29;20653;-47
2022/10/15 02:59:26;;;;;;;40.42;23.13;;;;;;;;;;4958728;29;20199;-47
2022/10/15 03:01:54;;;;;;;34.45;19.63;;;;;;;;;;4958259;29;20263;-47
2022/10/15 03:04:22;;;;;;;31.85;19.23;;;;;;;;;;4958578;29;20235;-47
2022/10/15 03:06:50;;;;;;;31.98;18.10;;;;;;;;;;4958430;29;20200;-47
2022/10/15 03:09:17;;;;;;;30.98;18.30;;;;;;;;;;4958739;29;20516;-46
2022/10/15 03:11:44;;;;;;;27.65;17.45;;;;;;;;;;4958209;29;20613;-47
2022/10/15 03:14:11;;;;;;;30.67;17.85;;;;;;;;;;4958186;29;20207;-47
2022/10/15 03:16:38;;;;;;;32.40;18.45;;;;;;;;;;4959316;28;20295;-48
2022/10/15 03:19:06;;;;;;;32.53;19.20;;;;;;;;;;4959244;28;20207;-47
2022/10/15 03:21:33;;;;;;;40.50;27.17;;;;;;;;;;4959050;28;20207;-46
2022/10/15 03:24:06;;;;;;;51.28;31.40;;;;;;;;;;4958343;29;20215;-47
2022/10/15 03:26:34;;;;;;;56.83;36.65;;;;;;;;;;4958230;29;20212;-47
2022/10/15 03:29:01;;;;;;;64.97;40.70;;;;;;;;;;4957909;29;20211;-46
2022/10/15 03:31:41;;;;;;;74.60;36.95;;;;;;;;;;4958123;29;20198;-48
2022/10/15 03:34:08;;;;;;;70.10;31.63;;;;;;;;;;4957992;29;20650;-46
2022/10/15 03:36:35;;;;;;;52.20;27.10;;;;;;;;;;4958068;29;20235;-47
2022/10/15 03:39:07;;;;;;;39.22;23.13;;;;;;;;;;4958101;29;20188;-47
2022/10/15 03:41:34;;;;;;;36.88;21.13;;;;;;;;;;4958521;28;20211;-47
2022/10/15 03:44:03;;;;;;;30.98;18.80;;;;;;;;;;4958952;28;20203;-47
2022/10/15 03:46:31;;;;;;;28.45;17.52;;;;;;;;;;4957881;29;20203;-47
2022/10/15 03:48:59;;;;;;;37.17;17.73;;;;;;;;;;4957711;29;20302;-47
2022/10/15 03:51:26;;;;;;;27.17;16.70;;;;;;;;;;4958611;29;20242;-47
2022/10/15 03:54:03;;;;;;;28.88;16.60;;;;;;;;;;4957904;29;20273;-47
2022/10/15 03:56:35;;;;;;;29.55;16.50;;;;;;;;;;4957549;29;20211;-46
2022/10/15 03:59:18;;;;;;;25.70;15.60;;;;;;;;;;4957939;29;20191;-46
2022/10/15 04:01:54;;;;;;;31.73;19.48;;;;;;;;;;4957402;29;20646;-47
2022/10/15 04:04:21;;;;;;;34.92;24.10;;;;;;;;;;4956494;28;20211;-46
2022/10/15 04:06:49;;;;;;;32.50;20.92;;;;;;;;;;4958110;28;20207;-47
2022/10/15 04:09:17;;;;;;;59.72;38.50;;;;;;;;;;4957480;28;20207;-47
2022/10/15 04:11:45;;;;;;;86.28;52.38;;;;;;;;;;4957343;29;20223;-47
2022/10/15 04:14:12;;;;;;;169.32;99.63;;;;;;;;;;4957278;29;20207;-47
2022/10/15 04:16:42;;;;;;;114.60;70.30;;;;;;;;;;4957273;28;20227;-48
2022/10/15 04:19:17;;;;;;;62.83;31.75;;;;;;;;;;4957016;29;20262;-47
2022/10/15 04:21:53;;;;;;;36.80;20.67;;;;;;;;;;4957232;29;20211;-47
2022/10/15 04:24:31;;;;;;;46.00;23.25;;;;;;;;;;4956767;29;20705;-48
2022/10/15 04:26:58;;;;;;;37.42;21.13;;;;;;;;;;4957767;28;20214;-46
2022/10/15 04:29:25;;;;;;;29.90;17.10;;;;;;;;;;4956864;29;20215;-49
2022/10/15 04:31:53;;;;;;;26.75;16.92;;;;;;;;;;4956653;29;20204;-48
2022/10/15 04:34:20;;;;;;;25.45;15.45;;;;;;;;;;4956803;29;20227;-49
2022/10/15 04:36:49;;;;;;;27.27;15.45;;;;;;;;;;4956523;29;20635;-48
2022/10/15 04:39:20;;;;;;;28.05;15.30;;;;;;;;;;4956407;29;20274;-49
2022/10/15 04:41:47;;;;;;;24.80;15.88;;;;;;;;;;4956365;29;20249;-47
2022/10/15 04:44:24;;;;;;;25.60;15.32;;;;;;;;;;4956629;29;20212;-48
2022/10/15 04:46:54;;;;;;;28.58;14.50;;;;;;;;;;4956507;29;20211;-47
2022/10/15 04:49:35;;;;;;;27.67;16.73;;;;;;;;;;4956331;29;20207;-47
2022/10/15 04:52:09;;;;;;;30.33;16.98;;;;;;;;;;4956129;29;20212;-47
2022/10/15 04:54:44;;;;;;;30.83;20.05;;;;;;;;;;4956144;29;20206;-48
2022/10/15 04:57:11;;;;;;;28.92;19.30;;;;;;;;;;4956084;29;20303;-48
2022/10/15 04:59:38;;;;;;;35.28;22.85;;;;;;;;;;4957199;28;20207;-47
2022/10/15 05:02:22;;;;;;;56.65;36.22;;;;;;;;;;4955900;28;20257;-47
2022/10/15 05:04:58;;;;;;;59.78;35.83;;;;;;;;;;4941421;29;20713;-48
2022/10/15 05:07:25;;;;;;;51.75;31.70;;;;;;;;;;4956759;28;20588;-46
2022/10/15 05:09:53;;;;;;;54.78;33.47;;;;;;;;;;4955701;29;20196;-47
2022/10/15 05:12:20;;;;;;;50.08;29.00;;;;;;;;;;4955899;29;20226;-48
2022/10/15 05:14:47;;;;;;;47.40;29.90;;;;;;;;;;4955496;28;20219;-48
2022/10/15 05:17:21;;;;;;;33.60;19.80;;;;;;;;;;4956160;29;20307;-48
2022/10/15 05:19:48;;;;;;;28.73;18.05;;;;;;;;;;4955690;29;20211;-48
2022/10/15 05:22:19;;;;;;;25.08;15.63;;;;;;;;;;4955717;29;20634;-48
2022/10/15 05:24:53;;;;;;;26.38;15.82;;;;;;;;;;4956039;29;20242;-47
2022/10/15 05:27:25;;;;;;;36.20;23.52;;;;;;;;;;4956212;29;20525;-48
2022/10/15 05:29:53;;;;;;;45.20;28.23;;;;;;;;;;4955826;28;20214;-49
2022/10/15 05:32:20;;;;;;;48.42;30.38;;;;;;;;;;4948876;28;20199;-51
2022/10/15 05:34:50;;;;;;;25.00;14.95;;;;;;;;;;4964619;28;20311;-48
2022/10/15 05:37:16;;;;;;;23.08;13.20;;;;;;;;;;4965117;28;20219;-51
2022/10/15 05:39:44;;;;;;;24.25;14.85;;;;;;;;;;4963305;28;20544;-48
2022/10/15 05:42:11;;;;;;;29.25;18.42;;;;;;;;;;4964057;28;20207;-51
2022/10/15 05:44:43;;;;;;;22.13;14.18;;;;;;;;;;4962847;28;20205;-49
2022/10/15 05:47:11;;;;;;;23.02;13.27;;;;;;;;;;4956737;28;20294;-49
2022/10/15 05:49:39;;;;;;;27.08;14.10;;;;;;;;;;4958022;28;20207;-48
2022/10/15 05:52:22;;;;;;;23.55;13.50;;;;;;;;;;4962662;28;20255;-49
2022/10/15 05:55:13;;;;;;;24.90;14.68;;;;;;;;;;4963582;28;20195;-50
2022/10/15 05:57:40;;;;;;;24.80;15.10;;;;;;;;;;4965601;28;20203;-51
2022/10/15 06:00:08;;;;;;;28.90;19.02;;;;;;;;;;4961415;28;20234;-49
2022/10/15 06:02:37;;;;;;;25.67;16.38;;;;;;;;;;4964294;28;20230;-49
2022/10/15 06:05:05;;;;;;;28.65;17.13;;;;;;;;;;4957639;28;20224;-49
2022/10/15 06:07:32;;;;;;;24.15;16.50;;;;;;;;;;4962672;28;20625;-53
2022/10/15 06:10:04;;;;;;;20.75;14.80;;;;;;;;;;4962148;28;20218;-53
2022/10/15 06:12:33;;;;;;;27.13;17.52;;;;;;;;;;4962175;28;20234;-49
2022/10/15 06:15:00;;;;;;;28.88;16.73;;;;;;;;;;4963825;28;20257;-48
2022/10/15 06:17:27;;;;;;;24.05;15.93;;;;;;;;;;4960130;28;20233;-50
2022/10/15 06:19:54;;;;;;;25.30;14.95;;;;;;;;;;4954655;28;20337;-50
2022/10/15 06:22:21;;;;;;;26.17;15.73;;;;;;;;;;4955771;28;20611;-47
2022/10/15 06:24:48;;;;;;;81.25;32.40;;;;;;;;;;4954895;28;20251;-48
2022/10/15 06:27:15;;;;;;;47.03;21.60;;;;;;;;;;4956749;28;20235;-48
2022/10/15 06:29:42;;;;;;;49.78;23.23;;;;;;;;;;4958463;28;20234;-50
2022/10/15 06:32:10;;;;;;;33.08;19.10;;;;;;;;;;4959458;28;20227;-47
2022/10/15 06:34:42;;;;;;;35.40;18.55;;;;;;;;;;4958124;28;20247;-49
2022/10/15 06:37:09;;;;;;;42.95;21.35;;;;;;;;;;4964020;28;20365;-48
2022/10/15 06:39:36;;;;;;;27.13;15.88;;;;;;;;;;4976305;28;20231;-52
2022/10/15 06:42:03;;;;;;;31.10;17.02;;;;;;;;;;4976556;28;20689;-50
2022/10/15 06:44:37;;;;;;;38.78;18.65;;;;;;;;;;4976071;28;20233;-49
2022/10/15 06:47:05;;;;;;;31.52;16.75;;;;;;;;;;4976671;28;20285;-49
2022/10/15 06:49:31;;;;;;;31.80;16.75;;;;;;;;;;4974914;28;20237;-48
2022/10/15 06:51:58;;;;;;;32.55;17.65;;;;;;;;;;4957506;28;20223;-46
2022/10/15 06:54:29;;;;;;;30.63;17.40;;;;;;;;;;4956833;28;20223;-47
2022/10/15 06:56:56;;;;;;;35.17;19.83;;;;;;;;;;4956270;28;20219;-48
2022/10/15 06:59:23;;;;;;;34.35;17.83;;;;;;;;;;4956446;28;20701;-49
2022/10/15 07:01:53;;;;;;;31.48;18.05;;;;;;;;;;4955265;28;20757;-52
2022/10/15 07:04:22;;;;;;;27.88;16.83;;;;;;;;;;4958090;28;20705;-50
2022/10/15 07:06:49;;;;;;;24.85;15.32;;;;;;;;;;4957437;29;20220;-48
2022/10/15 07:09:19;;;;;;;26.77;15.82;;;;;;;;;;4958085;28;20223;-49
2022/10/15 07:11:46;;;;;;;23.50;14.02;;;;;;;;;;4958017;28;20238;-50
2022/10/15 07:14:13;;;;;;;20.40;13.23;;;;;;;;;;4958182;29;20361;-49
2022/10/15 07:16:40;;;;;;;22.35;14.52;;;;;;;;;;4957892;28;20609;-48
2022/10/15 07:19:07;;;;;;;27.65;13.90;;;;;;;;;;4957715;29;20223;-50
2022/10/15 07:21:34;;;;;;;23.48;13.95;;;;;;;;;;4957249;28;20556;-50
2022/10/15 07:24:01;;;;;;;22.58;14.27;;;;;;;;;;4958009;28;20712;-50
2022/10/15 07:26:29;;;;;;;27.67;14.13;;;;;;;;;;4957691;28;20226;-48
2022/10/15 07:28:58;;;;;;;22.60;13.48;;;;;;;;;;4956944;28;20285;-52
2022/10/15 07:31:25;;;;;;;25.13;15.18;;;;;;;;;;4957235;28;20560;-51
2022/10/15 07:33:52;;;;;;;19.27;12.80;;;;;;;;;;4956167;28;20239;-53
2022/10/15 07:36:19;;;;;;;21.23;12.68;;;;;;;;;;4957265;28;20238;-53
2022/10/15 07:38:46;;;;;;;21.15;13.57;;;;;;;;;;4956442;28;20235;-52
2022/10/15 07:41:13;;;;;;;19.85;12.93;;;;;;;;;;4956565;28;20250;-50
2022/10/15 07:43:43;;;;;;;21.35;13.98;;;;;;;;;;4957445;28;20670;-52
2022/10/15 07:46:11;;;;;;;24.48;12.75;;;;;;;;;;4958461;28;20266;-54
2022/10/15 07:48:37;;;;;;;20.48;12.23;;;;;;;;;;4957560;28;20207;-52
2022/10/15 07:51:06;;;;;;;20.25;11.63;;;;;;;;;;4957513;28;20822;-50
2022/10/15 07:53:33;;;;;;;18.30;11.68;;;;;;;;;;4957828;29;20582;-53
2022/10/15 07:56:06;;;;;;;17.58;11.63;;;;;;;;;;4958012;28;20541;-53
2022/10/15 07:58:36;;;;;;;17.65;11.55;;;;;;;;;;4957753;28;20507;-53
2022/10/15 08:01:05;;;;;;;19.83;11.80;;;;;;;;;;4957739;28;20677;-50
2022/10/15 08:03:33;;;;;;;18.35;11.20;;;;;;;;;;4956793;29;20326;-51
2022/10/15 08:06:02;;;;;;;24.40;12.90;;;;;;;;;;4957475;28;20196;-53
2022/10/15 08:08:29;;;;;;;18.08;12.05;;;;;;;;;;4956037;29;20210;-49
2022/10/15 08:10:56;;;;;;;20.95;12.27;;;;;;;;;;4956529;29;20207;-53
2022/10/15 08:13:23;;;;;;;18.38;11.82;;;;;;;;;;4955591;28;20238;-50
2022/10/15 08:15:53;;;;;;;18.00;11.80;;;;;;;;;;4957414;28;20690;-53
2022/10/15 08:18:26;;;;;;;16.60;10.73;;;;;;;;;;4956304;29;20199;-50
2022/10/15 08:20:53;;;;;;;18.80;11.55;;;;;;;;;;4957274;28;20199;-51
2022/10/15 08:23:20;;;;;;;18.80;11.75;;;;;;;;;;4957353;28;20211;-55
2022/10/15 08:25:47;;;;;;;20.80;12.32;;;;;;;;;;4957459;28;20208;-52
2022/10/15 08:28:14;;;;;;;21.63;12.52;;;;;;;;;;4957392;28;20609;-53
2022/10/15 08:30:41;;;;;;;21.00;12.20;;;;;;;;;;4956711;28;20311;-53
2022/10/15 08:33:11;;;;;;;20.20;13.27;;;;;;;;;;4957244;28;20239;-51
2022/10/15 08:35:42;;;;;;;23.35;12.45;;;;;;;;;;4956178;29;20203;-49
2022/10/15 08:38:10;;;;;;;18.45;12.88;;;;;;;;;;4956703;28;20200;-48
2022/10/15 08:40:54;;;;;;;23.17;13.25;;;;;;;;;;4956297;28;20188;-53
2022/10/15 08:43:24;;;;;;;21.33;12.70;;;;;;;;;;4955282;29;20207;-52
2022/10/15 08:45:55;;;;;;;22.70;13.43;;;;;;;;;;4955191;29;20215;-52
2022/10/15 08:48:31;;;;;;;20.27;11.85;;;;;;;;;;4963163;28;20238;-51
2022/10/15 08:51:05;;;;;;;20.25;12.80;;;;;;;;;;4957436;28;20214;-53
2022/10/15 08:53:38;;;;;;;18.90;13.18;;;;;;;;;;4960862;28;20286;-55
2022/10/15 08:56:14;;;;;;;20.92;12.43;;;;;;;;;;4961190;28;20231;-50
2022/10/15 08:58:50;;;;;;;19.02;12.63;;;;;;;;;;4963551;28;20595;-50
2022/10/15 09:01:17;;;;;;;20.42;12.85;;;;;;;;;;4957910;28;20639;-50
2022/10/15 09:04:12;;;;;;;21.27;13.52;;;;;;;;;;4960651;28;20589;-52
2022/10/15 09:06:39;;;;;;;21.00;12.38;;;;;;;;;;4972057;28;20281;-57
2022/10/15 09:09:43;;;;;;;21.80;13.85;;;;;;;;;;4974369;28;20227;-53
2022/10/15 09:12:55;;;;;;;20.25;12.18;;;;;;;;;;4934917;29;20232;-52
2022/10/15 09:15:22;;;;;;;22.05;13.05;;;;;;;;;;4920739;29;20224;-56
2022/10/15 09:17:54;;;;;;;19.85;13.57;;;;;;;;;;4920460;29;20188;-51
2022/10/15 09:20:34;;;;;;;21.77;12.77;;;;;;;;;;4935525;29;20204;-50
2022/10/15 09:23:01;;;;;;;21.35;13.13;;;;;;;;;;4919460;29;20188;-53
2022/10/15 09:25:34;;;;;;;18.70;12.77;;;;;;;;;;4935548;29;20204;-51
2022/10/15 09:28:09;;;;;;;19.85;12.90;;;;;;;;;;4919308;29;20259;-50
2022/10/15 09:30:48;;;;;;;24.88;13.45;;;;;;;;;;4935217;29;20191;-50
2022/10/15 09:33:33;;;;;;;22.08;13.88;;;;;;;;;;4919511;29;20238;-49
2022/10/15 09:36:05;;;;;;;21.00;13.82;;;;;;;;;;4935022;29;20259;-49
2022/10/15 09:38:33;;;;;;;22.23;13.50;;;;;;;;;;4934320;29;20203;-48
2022/10/15 09:41:02;;;;;;;20.00;13.63;;;;;;;;;;4934306;29;20220;-50
2022/10/15 09:43:34;;;;;;;19.83;12.85;;;;;;;;;;4935791;29;20211;-50
2022/10/15 09:46:03;;;;;;;22.30;11.65;;;;;;;;;;4944496;29;20226;-49
2022/10/15 09:48:40;;;;;;;24.35;13.80;;;;;;;;;;4956558;29;20199;-55
2022/10/15 09:51:22;;;;;;;22.40;12.35;;;;;;;;;;4960567;28;20205;-54
2022/10/15 09:54:16;;;;;;;20.90;13.95;;;;;;;;;;4974299;28;20242;-54
2022/10/15 09:56:51;;;;;;;19.83;12.40;;;;;;;;;;4955986;28;20192;-51
2022/10/15 09:59:20;;;;;;;18.23;12.25;;;;;;;;;;4958597;28;20226;-49
2022/10/15 10:02:02;;;;;;;22.05;12.70;;;;;;;;;;4966227;28;20209;-51
2022/10/15 10:04:31;;;;;;;25.13;12.88;;;;;;;;;;4967981;28;20202;-54
2022/10/15 10:07:06;;;;;;;17.25;10.98;;;;;;;;;;4960145;29;20207;-53
2022/10/15 10:09:54;;;;;;;18.80;11.93;;;;;;;;;;4958604;28;20274;-51
2022/10/15 10:12:27;;;;;;;33.40;11.63;;;;;;;;;;4959053;28;20583;-52
2022/10/15 10:15:09;;;;;;;14.85;10.38;;;;;;;;;;4959204;28;20274;-50
2022/10/15 10:17:36;;;;;;;17.42;11.00;;;;;;;;;;4959189;29;20203;-48
2022/10/15 10:20:17;;;;;;;16.05;11.35;;;;;;;;;;4959238;28;20207;-50
2022/10/15 10:22:51;;;;;;;16.75;10.75;;;;;;;;;;4960171;28;20198;-47
2022/10/15 10:25:39;;;;;;;16.23;10.77;;;;;;;;;;4959273;28;20221;-51
2022/10/15 10:28:12;;;;;;;20.38;10.45;;;;;;;;;;4958028;29;20270;-48
2022/10/15 10:30:55;;;;;;;16.80;10.70;;;;;;;;;;4959227;28;20566;-50
2022/10/15 10:33:35;;;;;;;17.30;11.32;;;;;;;;;;4958919;28;20192;-49
2022/10/15 10:36:04;;;;;;;15.82;10.23;;;;;;;;;;4958500;29;20634;-56
2022/10/15 10:38:34;;;;;;;19.75;11.32;;;;;;;;;;4958240;29;20212;-50
2022/10/15 10:41:08;;;;;;;14.25;10.60;;;;;;;;;;4961913;28;20632;-49
2022/10/15 10:43:40;;;;;;;15.57;9.60;;;;;;;;;;4964785;28;20261;-51
2022/10/15 10:46:13;;;;;;;14.93;10.35;;;;;;;;;;4968944;28;20191;-54
2022/10/15 10:48:46;;;;;;;19.02;9.52;;;;;;;;;;4961473;28;20296;-52
2022/10/15 10:51:17;;;;;;;15.10;9.85;;;;;;;;;;4967888;28;20226;-49
2022/10/15 10:53:57;;;;;;;18.50;10.95;;;;;;;;;;4967573;28;20225;-50
2022/10/15 10:56:36;;;;;;;14.05;10.38;;;;;;;;;;4966238;28;20228;-50
2022/10/15 10:59:14;;;;;;;16.38;10.05;;;;;;;;;;4962847;28;20248;-49
2022/10/15 11:01:42;;;;;;;12.68;9.43;;;;;;;;;;4965780;28;20229;-49
2022/10/15 11:04:13;;;;;;;17.42;10.95;;;;;;;;;;4966594;28;20235;-56
2022/10/15 11:06:57;;;;;;;17.42;9.85;;;;;;;;;;4965216;28;20222;-55
2022/10/15 11:10:06;;;;;;;17.33;10.82;;;;;;;;;;4966015;28;20309;-54
2022/10/15 11:13:00;;;;;;;18.77;10.70;;;;;;;;;;4879951;29;20245;-48
2022/10/15 11:15:46;;;;;;;18.55;10.20;;;;;;;;;;4884109;29;20240;-51
2022/10/15 11:18:34;;;;;;;18.75;11.48;;;;;;;;;;4881438;29;20313;-53
2022/10/15 11:21:04;;;;;;;14.73;9.98;;;;;;;;;;4843920;29;20224;-61
2022/10/15 11:23:51;;;;;;;17.60;10.55;;;;;;;;;;4841956;29;20219;-52
2022/10/15 11:26:37;;;;;;;17.33;10.52;;;;;;;;;;4856460;29;20234;-48
2022/10/15 11:30:23;;;;;;;16.23;9.93;;;;;;;;;;4851425;29;20224;-50
2022/10/15 11:33:12;;;;;;;19.23;9.57;;;;;;;;;;4775944;30;20314;-48
2022/10/15 11:35:53;;;;;;;16.77;9.68;;;;;;;;;;4758149;30;20287;-49
2022/10/15 11:38:44;;;;;;;14.23;9.57;;;;;;;;;;4775934;30;20238;-51
2022/10/15 11:41:42;;;;;;;16.13;9.93;;;;;;;;;;4786733;30;20294;-49
2022/10/15 11:44:22;;;;;;;15.98;9.73;;;;;;;;;;4773995;30;20237;-49
2022/10/15 11:47:07;;;;;;;13.93;9.50;;;;;;;;;;4820540;29;20266;-51
2022/10/15 11:49:38;;;;;;;16.90;9.93;;;;;;;;;;4842160;29;20247;-49
2022/10/15 11:52:39;;;;;;;17.17;9.65;;;;;;;;;;4855746;29;20229;-49
2022/10/15 11:55:11;;;;;;;14.88;9.43;;;;;;;;;;4887180;29;20241;-48
2022/10/15 11:57:39;;;;;;;16.40;9.57;;;;;;;;;;4898895;29;20233;-51
2022/10/15 12:00:28;;;;;;;16.02;9.93;;;;;;;;;;4884185;29;20269;-49
2022/10/15 12:03:00;;;;;;;14.30;9.60;;;;;;;;;;4885394;29;20229;-53
2022/10/15 12:05:34;;;;;;;16.30;9.90;;;;;;;;;;4883401;29;20673;-55
2022/10/15 12:08:02;;;;;;;13.80;10.10;;;;;;;;;;4983491;28;20251;-56
2022/10/15 12:10:52;;;;;;;16.17;10.75;;;;;;;;;;4960717;28;20284;-55
2022/10/15 12:13:32;;;;;;;20.85;11.70;;;;;;;;;;4963028;28;20516;-53
2022/10/15 12:16:12;;;;;;;19.95;12.02;;;;;;;;;;4961012;28;20257;-53
2022/10/15 12:18:44;;;;;;;15.38;10.70;;;;;;;;;;4960758;28;20234;-53
2022/10/15 12:21:32;;;;;;;15.48;11.05;;;;;;;;;;4963420;28;20231;-51
2022/10/15 12:23:59;;;;;;;18.02;12.23;;;;;;;;;;4961985;28;20255;-54
2022/10/15 12:26:31;;;;;;;17.55;10.98;;;;;;;;;;4961524;28;20240;-56
2022/10/15 12:29:04;;;;;;;17.10;12.25;;;;;;;;;;4959516;28;20222;-50
2022/10/15 12:31:48;;;;;;;16.75;11.55;;;;;;;;;;4964732;28;20227;-51
2022/10/15 12:34:28;;;;;;;26.95;12.85;;;;;;;;;;4964692;28;20227;-50
2022/10/15 12:37:04;;;;;;;16.20;11.90;;;;;;;;;;4964179;28;20544;-54
2022/10/15 12:39:31;;;;;;;17.80;11.10;;;;;;;;;;4960739;28;21444;-52
2022/10/15 12:42:23;;;;;;;18.40;12.13;;;;;;;;;;4958497;28;20227;-50
2022/10/15 12:44:50;;;;;;;18.63;14.13;;;;;;;;;;4965284;28;20297;-51
2022/10/15 12:47:49;;;;;;;16.33;10.45;;;;;;;;;;4964591;28;20257;-52
2022/10/15 12:50:26;;;;;;;20.42;13.48;;;;;;;;;;4963496;28;20297;-51
2022/10/15 12:53:00;;;;;;;20.48;14.77;;;;;;;;;;4965004;28;20214;-54
2022/10/15 12:55:28;;;;;;;17.75;13.27;;;;;;;;;;4960664;28;20238;-53
2022/10/15 12:58:01;;;;;;;19.67;11.55;;;;;;;;;;4964630;28;20230;-51
2022/10/15 13:00:39;;;;;;;18.15;12.18;;;;;;;;;;4961722;28;20271;-56
2022/10/15 13:03:16;;;;;;;19.50;12.80;;;;;;;;;;4961522;28;20238;-53
2022/10/15 13:05:43;;;;;;;22.42;16.83;;;;;;;;;;4962896;28;20325;-54
2022/10/15 13:08:24;;;;;;;19.98;13.23;;;;;;;;;;4964962;28;20262;-51
2022/10/15 13:10:57;;;;;;;29.08;15.95;;;;;;;;;;4958118;28;20219;-53
2022/10/15 13:13:27;;;;;;;21.58;14.45;;;;;;;;;;4955959;28;20263;-52
2022/10/15 13:15:59;;;;;;;20.05;12.57;;;;;;;;;;4959674;28;20652;-52
2022/10/15 13:18:28;;;;;;;21.15;13.40;;;;;;;;;;4964675;28;20246;-52
2022/10/15 13:20:55;;;;;;;18.55;12.25;;;;;;;;;;4963768;28;20686;-50
2022/10/15 13:23:26;;;;;;;17.75;11.85;;;;;;;;;;4964789;28;20744;-49
2022/10/15 13:26:13;;;;;;;20.08;13.73;;;;;;;;;;4965491;28;20225;-49
2022/10/15 13:28:42;;;;;;;19.00;11.93;;;;;;;;;;4961003;28;20219;-49
2022/10/15 13:31:21;;;;;;;19.80;13.60;;;;;;;;;;4964040;28;20681;-51
2022/10/15 13:33:56;;;;;;;27.60;19.67;;;;;;;;;;4961763;28;20686;-51
2022/10/15 13:36:25;;;;;;;25.52;16.88;;;;;;;;;;4960886;28;20722;-49
2022/10/15 13:38:58;;;;;;;59.35;29.70;;;;;;;;;;4965198;28;20685;-52
2022/10/15 13:41:27;;;;;;;33.15;19.60;;;;;;;;;;4958230;28;20314;-50
2022/10/15 13:44:00;;;;;;;76.53;32.33;;;;;;;;;;4945749;28;20286;-50
2022/10/15 13:46:29;;;;;;;51.78;24.20;;;;;;;;;;4962655;28;20243;-49
2022/10/15 13:49:03;;;;;;;27.00;16.25;;;;;;;;;;4964404;28;20740;-51
2022/10/15 13:51:44;;;;;;;49.55;24.38;;;;;;;;;;4964881;28;20314;-50
2022/10/15 13:54:16;;;;;;;69.13;33.90;;;;;;;;;;4960000;28;20238;-52
2022/10/15 13:56:46;;;;;;;91.55;43.08;;;;;;;;;;4965329;28;20654;-49
2022/10/15 13:59:17;;;;;;;61.63;30.67;;;;;;;;;;4961404;28;20219;-49
2022/10/15 14:01:48;;;;;;;23.23;15.63;;;;;;;;;;4963327;28;20230;-49
2022/10/15 14:04:17;;;;;;;29.33;18.00;;;;;;;;;;4961463;28;20678;-51
2022/10/15 14:07:00;;;;;;;23.58;16.05;;;;;;;;;;4964060;28;20314;-51
2022/10/15 14:09:33;;;;;;;42.58;21.33;;;;;;;;;;4959122;28;20229;-55
2022/10/15 14:12:01;;;;;;;68.75;30.73;;;;;;;;;;4956510;28;20227;-55
2022/10/15 14:14:40;;;;;;;158.05;63.40;;;;;;;;;;4966797;28;20233;-54
2022/10/15 14:17:11;;;;;;;196.50;77.70;;;;;;;;;;4960771;28;20281;-56
2022/10/15 14:19:39;;;;;;;136.65;61.60;;;;;;;;;;4962042;28;20230;-54
2022/10/15 14:22:06;;;;;;;78.10;41.28;;;;;;;;;;4963310;28;20241;-57
2022/10/15 14:24:36;;;;;;;111.57;48.60;;;;;;;;;;4964651;28;20230;-55
2022/10/15 14:27:14;;;;;;;191.90;76.72;;;;;;;;;;4964728;28;20234;-53
2022/10/15 14:29:44;;;;;;;115.72;48.65;;;;;;;;;;4963553;28;20650;-49
2022/10/15 14:32:30;;;;;;;87.43;36.58;;;;;;;;;;4958711;28;20227;-51
2022/10/15 14:34:58;;;;;;;78.00;39.10;;;;;;;;;;4960011;28;20235;-50
2022/10/15 14:37:45;;;;;;;75.45;37.85;;;;;;;;;;4959463;28;20223;-52
2022/10/15 14:40:16;;;;;;;54.42;28.85;;;;;;;;;;4960622;28;20226;-55
2022/10/15 14:43:02;;;;;;;57.72;29.90;;;;;;;;;;4960861;28;20223;-54
2022/10/15 14:45:38;;;;;;;49.78;26.15;;;;;;;;;;4962859;28;20215;-50
2022/10/15 14:48:18;;;;;;;29.23;18.70;;;;;;;;;;4957251;28;20223;-53
2022/10/15 14:50:46;;;;;;;27.77;17.13;;;;;;;;;;4962524;28;20226;-50
2022/10/15 14:53:17;;;;;;;23.58;14.60;;;;;;;;;;4967835;28;20261;-53